sensor_id;sensor_type;location;lat;lon;timestamp;P1;durP1;ratioP1;P2;durP2;ratioP2
69991;SDS011;57332;51.320;-0.580;2022-12-13T00:00:44;19.08;;;7.95;;
69991;SDS011;57332;51.320;-0.580;2022-12-13T00:03:11;19.13;;;8.18;;
69991;SDS011;57332;51.320;-0.580;2022-12-13T00:05:42;17.15;;;6.00;;
69991;SDS011;57332;51.320;-0.580;2022-12-13T00:08:10;16.58;;;5.85;;
69991;SDS011;57332;51.320;-0.580;2022-12-13T00:10:37;17.40;;;6.63;;
69991;SDS011;57332;51.320;-0.580;2022-12-13T00:13:03;22.27;;;7.65;;
69991;SDS011;57332;51.320;-0.580;2022-12-13T00:15:30;20.35;;;7.65;;
69991;SDS011;57332;51.320;-0.580;2022-12-13T00:17:57;20.77;;;7.97;;
69991;SDS011;57332;51.320;-0.580;2022-12-13T00:20:24;20.08;;;7.15;;
69991;SDS011;57332;51.320;-0.580;2022-12-13T00:22:51;18.92;;;7.32;;
69991;SDS011;57332;51.320;-0.580;2022-12-13T00:25:18;20.05;;;7.35;;
69991;SDS011;57332;51.320;-0.580;2022-12-13T00:27:46;21.33;;;7.53;;
69991;SDS011;57332;51.320;-0.580;2022-12-13T00:30:13;17.65;;;7.50;;
69991;SDS011;57332;51.320;-0.580;2022-12-13T00:32:40;16.42;;;7.05;;
69991;SDS011;57332;51.320;-0.580;2022-12-13T00:35:07;20.52;;;7.47;;
69991;SDS011;57332;51.320;-0.580;2022-12-13T00:37:34;20.60;;;8.25;;
69991;SDS011;57332;51.320;-0.580;2022-12-13T00:40:01;19.40;;;6.97;;
69991;SDS011;57332;51.320;-0.580;2022-12-13T00:42:28;22.23;;;7.32;;
69991;SDS011;57332;51.320;-0.580;2022-12-13T00:44:55;19.52;;;7.68;;
69991;SDS011;57332;51.320;-0.580;2022-12-13T00:47:22;18.05;;;7.55;;
69991;SDS011;57332;51.320;-0.580;2022-12-13T00:49:49;20.73;;;6.85;;
69991;SDS011;57332;51.320;-0.580;2022-12-13T00:52:15;23.88;;;8.55;;
69991;SDS011;57332;51.320;-0.580;2022-12-13T00:54:42;20.38;;;7.63;;
69991;SDS011;57332;51.320;-0.580;2022-12-13T00:57:09;20.70;;;7.60;;
69991;SDS011;57332;51.320;-0.580;2022-12-13T00:59:36;20.55;;;7.68;;
69991;SDS011;57332;51.320;-0.580;2022-12-13T01:02:03;23.75;;;8.18;;
69991;SDS011;57332;51.320;-0.580;2022-12-13T01:04:30;21.42;;;7.45;;
69991;SDS011;57332;51.320;-0.580;2022-12-13T01:06:56;23.23;;;8.45;;
69991;SDS011;57332;51.320;-0.580;2022-12-13T01:09:24;19.73;;;7.55;;
69991;SDS011;57332;51.320;-0.580;2022-12-13T01:12:00;19.67;;;7.63;;
69991;SDS011;57332;51.320;-0.580;2022-12-13T01:14:27;19.92;;;7.03;;
69991;SDS011;57332;51.320;-0.580;2022-12-13T01:16:54;20.67;;;7.22;;
69991;SDS011;57332;51.320;-0.580;2022-12-13T01:19:24;19.88;;;8.88;;
69991;SDS011;57332;51.320;-0.580;2022-12-13T01:21:55;23.85;;;8.48;;
69991;SDS011;57332;51.320;-0.580;2022-12-13T01:24:25;22.85;;;7.60;;
69991;SDS011;57332;51.320;-0.580;2022-12-13T01:26:52;22.45;;;9.52;;
69991;SDS011;57332;51.320;-0.580;2022-12-13T01:29:23;24.27;;;8.70;;
69991;SDS011;57332;51.320;-0.580;2022-12-13T01:31:51;30.02;;;10.30;;
69991;SDS011;57332;51.320;-0.580;2022-12-13T01:34:19;29.27;;;10.45;;
69991;SDS011;57332;51.320;-0.580;2022-12-13T01:36:52;28.35;;;10.82;;
69991;SDS011;57332;51.320;-0.580;2022-12-13T01:41:52;26.80;;;8.75;;
69991;SDS011;57332;51.320;-0.580;2022-12-13T01:47:10;29.25;;;10.45;;
69991;SDS011;57332;51.320;-0.580;2022-12-13T01:49:38;28.08;;;9.80;;
69991;SDS011;57332;51.320;-0.580;2022-12-13T01:52:05;22.80;;;8.32;;
69991;SDS011;57332;51.320;-0.580;2022-12-13T01:54:36;24.58;;;9.07;;
69991;SDS011;57332;51.320;-0.580;2022-12-13T01:57:12;23.65;;;9.13;;
69991;SDS011;57332;51.320;-0.580;2022-12-13T01:59:41;25.52;;;9.35;;
69991;SDS011;57332;51.320;-0.580;2022-12-13T02:02:08;25.08;;;9.15;;
69991;SDS011;57332;51.320;-0.580;2022-12-13T02:05:12;25.42;;;8.65;;
69991;SDS011;57332;51.320;-0.580;2022-12-13T02:07:30;22.98;;;8.35;;
69991;SDS011;57332;51.320;-0.580;2022-12-13T02:09:59;20.52;;;7.75;;
69991;SDS011;57332;51.320;-0.580;2022-12-13T02:12:27;19.23;;;7.90;;
69991;SDS011;57332;51.320;-0.580;2022-12-13T02:14:59;21.73;;;8.85;;
69991;SDS011;57332;51.320;-0.580;2022-12-13T02:18:11;21.88;;;8.35;;
69991;SDS011;57332;51.320;-0.580;2022-12-13T02:25:38;20.35;;;7.78;;
69991;SDS011;57332;51.320;-0.580;2022-12-13T02:28:32;22.98;;;8.23;;
69991;SDS011;57332;51.320;-0.580;2022-12-13T02:31:15;20.38;;;7.53;;
69991;SDS011;57332;51.320;-0.580;2022-12-13T02:33:51;25.67;;;8.52;;
69991;SDS011;57332;51.320;-0.580;2022-12-13T02:39:22;22.42;;;8.38;;
69991;SDS011;57332;51.320;-0.580;2022-12-13T02:41:58;21.33;;;8.07;;
69991;SDS011;57332;51.320;-0.580;2022-12-13T02:44:28;21.13;;;7.65;;
69991;SDS011;57332;51.320;-0.580;2022-12-13T02:47:10;21.05;;;7.80;;
69991;SDS011;57332;51.320;-0.580;2022-12-13T02:49:53;20.20;;;7.70;;
69991;SDS011;57332;51.320;-0.580;2022-12-13T02:52:22;21.48;;;7.93;;
69991;SDS011;57332;51.320;-0.580;2022-12-13T02:54:51;23.23;;;7.60;;
69991;SDS011;57332;51.320;-0.580;2022-12-13T02:57:32;21.95;;;8.10;;
69991;SDS011;57332;51.320;-0.580;2022-12-13T03:00:04;23.38;;;8.30;;
69991;SDS011;57332;51.320;-0.580;2022-12-13T03:02:36;22.75;;;7.78;;
69991;SDS011;57332;51.320;-0.580;2022-12-13T03:08:19;21.67;;;7.28;;
69991;SDS011;57332;51.320;-0.580;2022-12-13T03:18:49;24.33;;;9.00;;
69991;SDS011;57332;51.320;-0.580;2022-12-13T03:21:17;18.95;;;7.28;;
69991;SDS011;57332;51.320;-0.580;2022-12-13T03:23:44;23.85;;;7.72;;
69991;SDS011;57332;51.320;-0.580;2022-12-13T03:26:12;19.60;;;8.27;;
69991;SDS011;57332;51.320;-0.580;2022-12-13T03:28:39;19.85;;;7.25;;
69991;SDS011;57332;51.320;-0.580;2022-12-13T03:31:06;21.20;;;8.02;;
69991;SDS011;57332;51.320;-0.580;2022-12-13T03:33:33;18.52;;;7.53;;
69991;SDS011;57332;51.320;-0.580;2022-12-13T03:36:00;21.83;;;7.35;;
69991;SDS011;57332;51.320;-0.580;2022-12-13T03:38:28;19.98;;;8.05;;
69991;SDS011;57332;51.320;-0.580;2022-12-13T03:40:56;19.63;;;7.45;;
69991;SDS011;57332;51.320;-0.580;2022-12-13T03:43:24;21.55;;;8.25;;
69991;SDS011;57332;51.320;-0.580;2022-12-13T03:45:51;20.58;;;7.63;;
69991;SDS011;57332;51.320;-0.580;2022-12-13T03:48:19;22.90;;;8.35;;
69991;SDS011;57332;51.320;-0.580;2022-12-13T03:50:48;21.02;;;7.80;;
69991;SDS011;57332;51.320;-0.580;2022-12-13T03:53:15;21.02;;;8.05;;
69991;SDS011;57332;51.320;-0.580;2022-12-13T03:55:49;22.45;;;7.68;;
69991;SDS011;57332;51.320;-0.580;2022-12-13T03:58:16;21.05;;;6.95;;
69991;SDS011;57332;51.320;-0.580;2022-12-13T04:00:43;24.27;;;7.80;;
69991;SDS011;57332;51.320;-0.580;2022-12-13T04:03:10;19.60;;;7.82;;
69991;SDS011;57332;51.320;-0.580;2022-12-13T04:05:36;19.67;;;7.68;;
69991;SDS011;57332;51.320;-0.580;2022-12-13T04:08:04;18.85;;;7.63;;
69991;SDS011;57332;51.320;-0.580;2022-12-13T04:10:47;23.80;;;7.65;;
69991;SDS011;57332;51.320;-0.580;2022-12-13T04:13:14;23.73;;;8.05;;
69991;SDS011;57332;51.320;-0.580;2022-12-13T04:16:00;23.42;;;9.00;;
69991;SDS011;57332;51.320;-0.580;2022-12-13T04:18:28;18.63;;;7.53;;
69991;SDS011;57332;51.320;-0.580;2022-12-13T04:20:54;18.67;;;6.60;;
69991;SDS011;57332;51.320;-0.580;2022-12-13T04:23:23;22.52;;;7.13;;
69991;SDS011;57332;51.320;-0.580;2022-12-13T04:25:50;22.38;;;7.78;;
69991;SDS011;57332;51.320;-0.580;2022-12-13T04:28:17;20.50;;;7.00;;
69991;SDS011;57332;51.320;-0.580;2022-12-13T04:30:49;20.20;;;8.05;;
69991;SDS011;57332;51.320;-0.580;2022-12-13T04:33:22;17.33;;;7.25;;
69991;SDS011;57332;51.320;-0.580;2022-12-13T04:35:49;21.08;;;6.53;;
69991;SDS011;57332;51.320;-0.580;2022-12-13T04:38:17;22.80;;;7.25;;
69991;SDS011;57332;51.320;-0.580;2022-12-13T04:40:44;23.23;;;8.07;;
69991;SDS011;57332;51.320;-0.580;2022-12-13T04:43:10;23.70;;;8.32;;
69991;SDS011;57332;51.320;-0.580;2022-12-13T04:45:37;18.33;;;6.75;;
69991;SDS011;57332;51.320;-0.580;2022-12-13T04:48:04;20.50;;;7.57;;
69991;SDS011;57332;51.320;-0.580;2022-12-13T04:50:31;18.15;;;7.22;;
69991;SDS011;57332;51.320;-0.580;2022-12-13T04:52:58;22.88;;;7.15;;
69991;SDS011;57332;51.320;-0.580;2022-12-13T04:55:25;20.45;;;7.55;;
69991;SDS011;57332;51.320;-0.580;2022-12-13T04:57:52;21.58;;;7.50;;
69991;SDS011;57332;51.320;-0.580;2022-12-13T05:00:19;19.50;;;8.02;;
69991;SDS011;57332;51.320;-0.580;2022-12-13T05:02:47;22.52;;;7.53;;
69991;SDS011;57332;51.320;-0.580;2022-12-13T05:05:14;16.20;;;7.68;;
69991;SDS011;57332;51.320;-0.580;2022-12-13T05:07:42;19.50;;;8.05;;
69991;SDS011;57332;51.320;-0.580;2022-12-13T05:10:09;21.70;;;7.50;;
69991;SDS011;57332;51.320;-0.580;2022-12-13T05:12:36;22.00;;;6.80;;
69991;SDS011;57332;51.320;-0.580;2022-12-13T05:15:04;24.30;;;8.02;;
69991;SDS011;57332;51.320;-0.580;2022-12-13T05:17:31;21.35;;;7.88;;
69991;SDS011;57332;51.320;-0.580;2022-12-13T05:19:57;18.83;;;6.43;;
69991;SDS011;57332;51.320;-0.580;2022-12-13T05:22:24;18.88;;;6.85;;
69991;SDS011;57332;51.320;-0.580;2022-12-13T05:24:52;23.27;;;7.53;;
69991;SDS011;57332;51.320;-0.580;2022-12-13T05:27:19;18.85;;;7.18;;
69991;SDS011;57332;51.320;-0.580;2022-12-13T05:29:53;22.58;;;7.20;;
69991;SDS011;57332;51.320;-0.580;2022-12-13T05:32:36;19.23;;;7.30;;
69991;SDS011;57332;51.320;-0.580;2022-12-13T05:35:16;19.13;;;7.30;;
69991;SDS011;57332;51.320;-0.580;2022-12-13T05:37:48;21.50;;;7.95;;
69991;SDS011;57332;51.320;-0.580;2022-12-13T05:40:28;17.88;;;7.38;;
69991;SDS011;57332;51.320;-0.580;2022-12-13T05:42:55;19.52;;;7.30;;
69991;SDS011;57332;51.320;-0.580;2022-12-13T05:45:30;21.42;;;7.88;;
69991;SDS011;57332;51.320;-0.580;2022-12-13T05:47:57;22.35;;;8.00;;
69991;SDS011;57332;51.320;-0.580;2022-12-13T05:50:24;21.73;;;7.78;;
69991;SDS011;57332;51.320;-0.580;2022-12-13T05:52:51;19.85;;;7.85;;
69991;SDS011;57332;51.320;-0.580;2022-12-13T05:55:18;22.38;;;8.25;;
69991;SDS011;57332;51.320;-0.580;2022-12-13T05:57:45;20.30;;;7.15;;
69991;SDS011;57332;51.320;-0.580;2022-12-13T06:00:16;25.67;;;7.63;;
69991;SDS011;57332;51.320;-0.580;2022-12-13T06:02:56;23.67;;;8.23;;
69991;SDS011;57332;51.320;-0.580;2022-12-13T06:05:30;21.13;;;8.05;;
69991;SDS011;57332;51.320;-0.580;2022-12-13T06:07:57;20.15;;;7.07;;
69991;SDS011;57332;51.320;-0.580;2022-12-13T06:10:25;25.27;;;8.23;;
69991;SDS011;57332;51.320;-0.580;2022-12-13T06:13:01;16.17;;;6.95;;
69991;SDS011;57332;51.320;-0.580;2022-12-13T06:15:46;19.95;;;6.97;;
69991;SDS011;57332;51.320;-0.580;2022-12-13T06:18:13;17.63;;;6.68;;
69991;SDS011;57332;51.320;-0.580;2022-12-13T06:20:41;19.27;;;7.57;;
69991;SDS011;57332;51.320;-0.580;2022-12-13T06:23:07;22.40;;;8.25;;
69991;SDS011;57332;51.320;-0.580;2022-12-13T06:25:35;20.02;;;7.03;;
69991;SDS011;57332;51.320;-0.580;2022-12-13T06:28:02;22.92;;;7.80;;
69991;SDS011;57332;51.320;-0.580;2022-12-13T06:30:29;16.42;;;6.38;;
69991;SDS011;57332;51.320;-0.580;2022-12-13T06:32:56;20.98;;;7.20;;
69991;SDS011;57332;51.320;-0.580;2022-12-13T06:35:23;15.38;;;6.90;;
69991;SDS011;57332;51.320;-0.580;2022-12-13T06:37:54;21.08;;;7.03;;
69991;SDS011;57332;51.320;-0.580;2022-12-13T06:40:30;20.70;;;6.93;;
69991;SDS011;57332;51.320;-0.580;2022-12-13T06:42:57;19.48;;;7.40;;
69991;SDS011;57332;51.320;-0.580;2022-12-13T06:45:24;16.35;;;7.20;;
69991;SDS011;57332;51.320;-0.580;2022-12-13T06:47:51;19.02;;;7.15;;
69991;SDS011;57332;51.320;-0.580;2022-12-13T06:50:18;17.75;;;7.82;;
69991;SDS011;57332;51.320;-0.580;2022-12-13T06:52:45;21.05;;;7.00;;
69991;SDS011;57332;51.320;-0.580;2022-12-13T06:55:12;23.10;;;7.10;;
69991;SDS011;57332;51.320;-0.580;2022-12-13T06:57:39;18.88;;;7.32;;
69991;SDS011;57332;51.320;-0.580;2022-12-13T07:00:07;20.98;;;7.82;;
69991;SDS011;57332;51.320;-0.580;2022-12-13T07:02:34;20.08;;;7.10;;
69991;SDS011;57332;51.320;-0.580;2022-12-13T07:05:01;19.45;;;6.88;;
69991;SDS011;57332;51.320;-0.580;2022-12-13T07:07:28;21.58;;;7.07;;
69991;SDS011;57332;51.320;-0.580;2022-12-13T07:09:55;19.08;;;6.75;;
69991;SDS011;57332;51.320;-0.580;2022-12-13T07:12:22;21.35;;;7.30;;
69991;SDS011;57332;51.320;-0.580;2022-12-13T07:14:49;17.83;;;6.60;;
69991;SDS011;57332;51.320;-0.580;2022-12-13T07:17:16;21.33;;;7.85;;
69991;SDS011;57332;51.320;-0.580;2022-12-13T07:20:00;19.27;;;7.22;;
69991;SDS011;57332;51.320;-0.580;2022-12-13T07:22:27;17.17;;;6.78;;
69991;SDS011;57332;51.320;-0.580;2022-12-13T07:25:00;15.13;;;6.28;;
69991;SDS011;57332;51.320;-0.580;2022-12-13T07:27:26;20.58;;;6.57;;
69991;SDS011;57332;51.320;-0.580;2022-12-13T07:29:53;17.55;;;5.93;;
69991;SDS011;57332;51.320;-0.580;2022-12-13T07:32:20;20.52;;;7.05;;
69991;SDS011;57332;51.320;-0.580;2022-12-13T07:34:47;20.45;;;6.93;;
69991;SDS011;57332;51.320;-0.580;2022-12-13T07:37:14;16.25;;;6.05;;
69991;SDS011;57332;51.320;-0.580;2022-12-13T07:39:57;18.30;;;6.88;;
69991;SDS011;57332;51.320;-0.580;2022-12-13T07:42:29;17.25;;;5.82;;
69991;SDS011;57332;51.320;-0.580;2022-12-13T07:44:56;16.90;;;6.93;;
69991;SDS011;57332;51.320;-0.580;2022-12-13T07:47:27;17.95;;;6.05;;
69991;SDS011;57332;51.320;-0.580;2022-12-13T07:49:54;15.65;;;6.43;;
69991;SDS011;57332;51.320;-0.580;2022-12-13T07:52:21;17.83;;;6.50;;
69991;SDS011;57332;51.320;-0.580;2022-12-13T07:54:48;16.15;;;6.22;;
69991;SDS011;57332;51.320;-0.580;2022-12-13T07:57:15;16.45;;;6.40;;
69991;SDS011;57332;51.320;-0.580;2022-12-13T07:59:42;19.15;;;6.68;;
69991;SDS011;57332;51.320;-0.580;2022-12-13T08:02:10;13.50;;;5.93;;
69991;SDS011;57332;51.320;-0.580;2022-12-13T08:04:38;16.92;;;6.47;;
69991;SDS011;57332;51.320;-0.580;2022-12-13T08:07:06;15.30;;;5.50;;
69991;SDS011;57332;51.320;-0.580;2022-12-13T08:09:34;16.40;;;5.60;;
69991;SDS011;57332;51.320;-0.580;2022-12-13T08:12:01;14.90;;;5.88;;
69991;SDS011;57332;51.320;-0.580;2022-12-13T08:14:28;16.52;;;5.88;;
69991;SDS011;57332;51.320;-0.580;2022-12-13T08:16:55;17.73;;;6.22;;
69991;SDS011;57332;51.320;-0.580;2022-12-13T08:19:22;17.23;;;5.75;;
69991;SDS011;57332;51.320;-0.580;2022-12-13T08:21:49;17.58;;;5.97;;
69991;SDS011;57332;51.320;-0.580;2022-12-13T08:24:23;15.00;;;6.72;;
69991;SDS011;57332;51.320;-0.580;2022-12-13T08:26:50;13.70;;;6.30;;
69991;SDS011;57332;51.320;-0.580;2022-12-13T08:29:17;16.85;;;7.38;;
69991;SDS011;57332;51.320;-0.580;2022-12-13T08:32:03;19.88;;;7.28;;
69991;SDS011;57332;51.320;-0.580;2022-12-13T08:34:30;15.45;;;5.95;;
69991;SDS011;57332;51.320;-0.580;2022-12-13T08:36:57;14.18;;;6.13;;
69991;SDS011;57332;51.320;-0.580;2022-12-13T08:39:31;17.63;;;7.18;;
69991;SDS011;57332;51.320;-0.580;2022-12-13T08:42:05;16.52;;;6.63;;
69991;SDS011;57332;51.320;-0.580;2022-12-13T08:44:49;16.42;;;5.88;;
69991;SDS011;57332;51.320;-0.580;2022-12-13T08:47:17;18.42;;;6.60;;
69991;SDS011;57332;51.320;-0.580;2022-12-13T08:49:54;15.48;;;6.65;;
69991;SDS011;57332;51.320;-0.580;2022-12-13T08:52:29;16.60;;;6.50;;
69991;SDS011;57332;51.320;-0.580;2022-12-13T08:54:56;18.98;;;7.38;;
69991;SDS011;57332;51.320;-0.580;2022-12-13T08:57:23;17.33;;;5.95;;
69991;SDS011;57332;51.320;-0.580;2022-12-13T08:59:49;15.20;;;5.82;;
69991;SDS011;57332;51.320;-0.580;2022-12-13T09:02:16;19.23;;;7.00;;
69991;SDS011;57332;51.320;-0.580;2022-12-13T09:04:44;18.83;;;7.63;;
69991;SDS011;57332;51.320;-0.580;2022-12-13T09:07:10;15.93;;;6.15;;
69991;SDS011;57332;51.320;-0.580;2022-12-13T09:09:37;18.55;;;7.43;;
69991;SDS011;57332;51.320;-0.580;2022-12-13T09:12:04;16.50;;;6.45;;
69991;SDS011;57332;51.320;-0.580;2022-12-13T09:14:51;16.98;;;6.78;;
69991;SDS011;57332;51.320;-0.580;2022-12-13T09:17:28;18.10;;;6.70;;
69991;SDS011;57332;51.320;-0.580;2022-12-13T09:20:03;18.20;;;6.28;;
69991;SDS011;57332;51.320;-0.580;2022-12-13T09:22:50;16.80;;;6.30;;
69991;SDS011;57332;51.320;-0.580;2022-12-13T09:25:17;15.15;;;6.35;;
69991;SDS011;57332;51.320;-0.580;2022-12-13T09:27:49;19.95;;;7.43;;
69991;SDS011;57332;51.320;-0.580;2022-12-13T09:30:16;21.08;;;7.75;;
69991;SDS011;57332;51.320;-0.580;2022-12-13T09:32:43;17.70;;;6.22;;
69991;SDS011;57332;51.320;-0.580;2022-12-13T09:35:15;21.02;;;7.93;;
69991;SDS011;57332;51.320;-0.580;2022-12-13T09:37:43;21.92;;;9.23;;
69991;SDS011;57332;51.320;-0.580;2022-12-13T09:40:21;23.17;;;9.07;;
69991;SDS011;57332;51.320;-0.580;2022-12-13T09:42:53;25.73;;;8.57;;
69991;SDS011;57332;51.320;-0.580;2022-12-13T09:45:39;21.85;;;8.82;;
69991;SDS011;57332;51.320;-0.580;2022-12-13T09:48:10;22.85;;;7.75;;
69991;SDS011;57332;51.320;-0.580;2022-12-13T09:50:39;26.00;;;9.00;;
69991;SDS011;57332;51.320;-0.580;2022-12-13T09:53:20;23.40;;;7.78;;
69991;SDS011;57332;51.320;-0.580;2022-12-13T09:55:59;23.45;;;8.65;;
69991;SDS011;57332;51.320;-0.580;2022-12-13T09:58:36;23.63;;;8.82;;
69991;SDS011;57332;51.320;-0.580;2022-12-13T10:01:03;20.80;;;8.80;;
69991;SDS011;57332;51.320;-0.580;2022-12-13T10:03:30;20.88;;;9.25;;
69991;SDS011;57332;51.320;-0.580;2022-12-13T10:06:13;19.85;;;7.45;;
69991;SDS011;57332;51.320;-0.580;2022-12-13T10:08:52;19.98;;;7.30;;
69991;SDS011;57332;51.320;-0.580;2022-12-13T10:11:24;16.95;;;6.95;;
69991;SDS011;57332;51.320;-0.580;2022-12-13T10:14:03;19.77;;;8.63;;
69991;SDS011;57332;51.320;-0.580;2022-12-13T10:19:15;15.45;;;7.63;;
69991;SDS011;57332;51.320;-0.580;2022-12-13T10:21:56;21.02;;;8.65;;
69991;SDS011;57332;51.320;-0.580;2022-12-13T10:24:50;18.80;;;7.15;;
69991;SDS011;57332;51.320;-0.580;2022-12-13T10:27:57;21.98;;;8.18;;
69991;SDS011;57332;51.320;-0.580;2022-12-13T10:30:07;26.33;;;9.23;;
69991;SDS011;57332;51.320;-0.580;2022-12-13T10:38:19;18.85;;;8.35;;
69991;SDS011;57332;51.320;-0.580;2022-12-13T10:40:46;19.73;;;7.68;;
69991;SDS011;57332;51.320;-0.580;2022-12-13T10:43:20;21.15;;;9.40;;
69991;SDS011;57332;51.320;-0.580;2022-12-13T10:46:01;18.55;;;8.68;;
69991;SDS011;57332;51.320;-0.580;2022-12-13T10:48:32;21.70;;;8.68;;
69991;SDS011;57332;51.320;-0.580;2022-12-13T10:53:32;21.92;;;9.05;;
69991;SDS011;57332;51.320;-0.580;2022-12-13T10:56:00;22.88;;;9.07;;
69991;SDS011;57332;51.320;-0.580;2022-12-13T10:58:35;22.90;;;8.88;;
69991;SDS011;57332;51.320;-0.580;2022-12-13T11:01:10;23.48;;;9.27;;
69991;SDS011;57332;51.320;-0.580;2022-12-13T11:03:37;23.00;;;9.55;;
69991;SDS011;57332;51.320;-0.580;2022-12-13T11:06:14;19.98;;;8.73;;
69991;SDS011;57332;51.320;-0.580;2022-12-13T11:08:41;19.65;;;8.25;;
69991;SDS011;57332;51.320;-0.580;2022-12-13T11:11:08;25.95;;;9.45;;
69991;SDS011;57332;51.320;-0.580;2022-12-13T11:13:36;20.25;;;8.25;;
69991;SDS011;57332;51.320;-0.580;2022-12-13T11:16:04;23.17;;;8.43;;
69991;SDS011;57332;51.320;-0.580;2022-12-13T11:18:39;21.42;;;8.82;;
69991;SDS011;57332;51.320;-0.580;2022-12-13T11:21:06;18.42;;;8.48;;
69991;SDS011;57332;51.320;-0.580;2022-12-13T11:23:37;16.70;;;7.68;;
69991;SDS011;57332;51.320;-0.580;2022-12-13T11:26:07;19.77;;;7.82;;
69991;SDS011;57332;51.320;-0.580;2022-12-13T11:28:51;19.90;;;7.93;;
69991;SDS011;57332;51.320;-0.580;2022-12-13T11:36:38;18.70;;;7.80;;
69991;SDS011;57332;51.320;-0.580;2022-12-13T11:41:53;19.80;;;7.40;;
69991;SDS011;57332;51.320;-0.580;2022-12-13T11:44:32;19.40;;;7.90;;
69991;SDS011;57332;51.320;-0.580;2022-12-13T11:47:12;21.27;;;8.38;;
69991;SDS011;57332;51.320;-0.580;2022-12-13T11:49:40;21.83;;;8.02;;
69991;SDS011;57332;51.320;-0.580;2022-12-13T11:52:29;16.73;;;7.63;;
69991;SDS011;57332;51.320;-0.580;2022-12-13T11:58:04;14.80;;;6.80;;
69991;SDS011;57332;51.320;-0.580;2022-12-13T12:00:34;22.92;;;8.13;;
69991;SDS011;57332;51.320;-0.580;2022-12-13T12:03:08;17.40;;;7.22;;
69991;SDS011;57332;51.320;-0.580;2022-12-13T12:05:39;14.70;;;7.13;;
69991;SDS011;57332;51.320;-0.580;2022-12-13T12:08:22;17.38;;;7.63;;
69991;SDS011;57332;51.320;-0.580;2022-12-13T12:11:11;15.35;;;6.40;;
69991;SDS011;57332;51.320;-0.580;2022-12-13T12:13:40;18.60;;;7.35;;
69991;SDS011;57332;51.320;-0.580;2022-12-13T12:16:32;17.25;;;7.15;;
69991;SDS011;57332;51.320;-0.580;2022-12-13T12:19:00;19.08;;;7.03;;
69991;SDS011;57332;51.320;-0.580;2022-12-13T12:21:34;19.40;;;7.43;;
69991;SDS011;57332;51.320;-0.580;2022-12-13T12:27:59;18.45;;;7.47;;
69991;SDS011;57332;51.320;-0.580;2022-12-13T12:32:41;17.92;;;8.25;;
69991;SDS011;57332;51.320;-0.580;2022-12-13T12:42:43;18.45;;;7.57;;
69991;SDS011;57332;51.320;-0.580;2022-12-13T12:54:36;15.90;;;7.00;;
69991;SDS011;57332;51.320;-0.580;2022-12-13T12:57:01;22.83;;;9.32;;
69991;SDS011;57332;51.320;-0.580;2022-12-13T12:59:44;17.60;;;8.23;;
69991;SDS011;57332;51.320;-0.580;2022-12-13T13:02:15;22.73;;;8.02;;
69991;SDS011;57332;51.320;-0.580;2022-12-13T13:04:44;20.05;;;8.77;;
69991;SDS011;57332;51.320;-0.580;2022-12-13T13:07:37;18.27;;;8.52;;
69991;SDS011;57332;51.320;-0.580;2022-12-13T13:10:05;20.83;;;8.68;;
69991;SDS011;57332;51.320;-0.580;2022-12-13T13:12:52;18.38;;;7.75;;
69991;SDS011;57332;51.320;-0.580;2022-12-13T13:18:06;19.73;;;8.20;;
69991;SDS011;57332;51.320;-0.580;2022-12-13T13:23:46;22.00;;;8.90;;
69991;SDS011;57332;51.320;-0.580;2022-12-13T13:26:26;16.40;;;8.05;;
69991;SDS011;57332;51.320;-0.580;2022-12-13T13:31:58;18.95;;;8.50;;
69991;SDS011;57332;51.320;-0.580;2022-12-13T13:34:38;19.98;;;8.20;;
69991;SDS011;57332;51.320;-0.580;2022-12-13T13:42:23;19.50;;;7.45;;
69991;SDS011;57332;51.320;-0.580;2022-12-13T13:52:54;19.33;;;7.30;;
69991;SDS011;57332;51.320;-0.580;2022-12-13T14:13:51;17.55;;;6.68;;
69991;SDS011;57332;51.320;-0.580;2022-12-13T14:29:44;15.45;;;5.85;;
69991;SDS011;57332;51.320;-0.580;2022-12-13T14:32:27;15.35;;;6.32;;
69991;SDS011;57332;51.320;-0.580;2022-12-13T14:34:57;15.23;;;6.28;;
69991;SDS011;57332;51.320;-0.580;2022-12-13T14:37:51;16.15;;;6.15;;
69991;SDS011;57332;51.320;-0.580;2022-12-13T14:40:24;14.50;;;6.88;;
69991;SDS011;57332;51.320;-0.580;2022-12-13T14:42:51;12.93;;;5.75;;
69991;SDS011;57332;51.320;-0.580;2022-12-13T14:45:22;14.13;;;7.13;;
69991;SDS011;57332;51.320;-0.580;2022-12-13T14:47:54;14.90;;;6.18;;
69991;SDS011;57332;51.320;-0.580;2022-12-13T14:50:23;14.75;;;6.03;;
69991;SDS011;57332;51.320;-0.580;2022-12-13T14:52:51;14.73;;;6.97;;
69991;SDS011;57332;51.320;-0.580;2022-12-13T14:55:32;13.95;;;6.05;;
69991;SDS011;57332;51.320;-0.580;2022-12-13T14:58:00;14.35;;;6.18;;
69991;SDS011;57332;51.320;-0.580;2022-12-13T15:00:29;17.63;;;6.78;;
69991;SDS011;57332;51.320;-0.580;2022-12-13T15:02:57;16.15;;;7.25;;
69991;SDS011;57332;51.320;-0.580;2022-12-13T15:05:29;19.00;;;7.88;;
69991;SDS011;57332;51.320;-0.580;2022-12-13T15:07:57;16.15;;;6.65;;
69991;SDS011;57332;51.320;-0.580;2022-12-13T15:10:26;16.13;;;6.95;;
69991;SDS011;57332;51.320;-0.580;2022-12-13T15:12:57;16.85;;;6.78;;
69991;SDS011;57332;51.320;-0.580;2022-12-13T15:18:04;13.48;;;6.32;;
69991;SDS011;57332;51.320;-0.580;2022-12-13T15:20:32;17.88;;;6.63;;
69991;SDS011;57332;51.320;-0.580;2022-12-13T15:23:00;15.98;;;7.05;;
69991;SDS011;57332;51.320;-0.580;2022-12-13T15:25:28;17.90;;;7.13;;
69991;SDS011;57332;51.320;-0.580;2022-12-13T15:27:54;17.40;;;7.40;;
69991;SDS011;57332;51.320;-0.580;2022-12-13T15:30:21;16.13;;;7.72;;
69991;SDS011;57332;51.320;-0.580;2022-12-13T15:33:03;17.88;;;7.00;;
69991;SDS011;57332;51.320;-0.580;2022-12-13T15:35:31;17.42;;;7.10;;
69991;SDS011;57332;51.320;-0.580;2022-12-13T15:37:58;18.80;;;7.18;;
69991;SDS011;57332;51.320;-0.580;2022-12-13T15:40:25;17.50;;;8.00;;
69991;SDS011;57332;51.320;-0.580;2022-12-13T15:42:52;15.98;;;6.43;;
69991;SDS011;57332;51.320;-0.580;2022-12-13T15:45:23;20.33;;;7.47;;
69991;SDS011;57332;51.320;-0.580;2022-12-13T15:47:51;16.13;;;6.55;;
69991;SDS011;57332;51.320;-0.580;2022-12-13T15:50:35;18.73;;;7.85;;
69991;SDS011;57332;51.320;-0.580;2022-12-13T15:53:16;24.23;;;10.73;;
69991;SDS011;57332;51.320;-0.580;2022-12-13T15:55:45;24.50;;;11.55;;
69991;SDS011;57332;51.320;-0.580;2022-12-13T15:58:21;19.35;;;8.35;;
69991;SDS011;57332;51.320;-0.580;2022-12-13T16:00:49;27.10;;;12.18;;
69991;SDS011;57332;51.320;-0.580;2022-12-13T16:03:17;26.98;;;11.25;;
69991;SDS011;57332;51.320;-0.580;2022-12-13T16:05:54;29.73;;;11.48;;
69991;SDS011;57332;51.320;-0.580;2022-12-13T16:08:32;23.73;;;9.18;;
69991;SDS011;57332;51.320;-0.580;2022-12-13T16:11:01;19.58;;;8.80;;
69991;SDS011;57332;51.320;-0.580;2022-12-13T16:13:32;19.10;;;8.18;;
69991;SDS011;57332;51.320;-0.580;2022-12-13T16:16:00;17.50;;;7.53;;
69991;SDS011;57332;51.320;-0.580;2022-12-13T16:18:43;17.20;;;8.27;;
69991;SDS011;57332;51.320;-0.580;2022-12-13T16:21:10;21.05;;;8.32;;
69991;SDS011;57332;51.320;-0.580;2022-12-13T16:23:37;21.33;;;9.35;;
69991;SDS011;57332;51.320;-0.580;2022-12-13T16:26:04;19.48;;;9.50;;
69991;SDS011;57332;51.320;-0.580;2022-12-13T16:28:34;18.80;;;7.88;;
69991;SDS011;57332;51.320;-0.580;2022-12-13T16:31:12;19.85;;;9.65;;
69991;SDS011;57332;51.320;-0.580;2022-12-13T16:36:07;22.58;;;9.05;;
69991;SDS011;57332;51.320;-0.580;2022-12-13T16:38:34;21.38;;;9.48;;
69991;SDS011;57332;51.320;-0.580;2022-12-13T16:41:01;23.38;;;8.52;;
69991;SDS011;57332;51.320;-0.580;2022-12-13T16:43:36;21.52;;;9.50;;
69991;SDS011;57332;51.320;-0.580;2022-12-13T16:46:04;26.85;;;10.88;;
69991;SDS011;57332;51.320;-0.580;2022-12-13T16:48:51;25.02;;;11.30;;
69991;SDS011;57332;51.320;-0.580;2022-12-13T16:51:18;22.38;;;9.90;;